Time;durP1;ratioP1;P1;durP2;ratioP2;P2;SDS_P1;SDS_P2;PMS_P1;PMS_P2;Temp;Humidity;BMP_temperature;BMP_pressure;BME280_temperature;BME280_humidity;BME280_pressure;Samples;Min_cycle;Max_cycle;Signal;HPM_P1;HPM_P2
2023/08/21 00:00:01;;;;;;;0.40;0.40;;;;;;;15.25;83.86;99300.72;5090637;28;20052;-80
2023/08/21 00:02:32;;;;;;;0.30;0.30;;;;;;;15.21;84.25;99296.09;5090931;28;20068;-80
2023/08/21 00:04:59;;;;;;;0.40;0.40;;;;;;;15.20;84.11;99303.44;5090773;28;20052;-80
2023/08/21 00:07:29;;;;;;;0.30;0.30;;;;;;;15.24;84.50;99306.44;5073190;28;20047;-80
2023/08/21 00:09:56;;;;;;;0.40;0.40;;;;;;;15.23;84.54;99302.91;5091169;28;20048;-80
2023/08/21 00:12:23;;;;;;;0.40;0.40;;;;;;;15.21;84.64;99299.63;5090930;28;20422;-80
2023/08/21 00:14:50;;;;;;;0.40;0.40;;;;;;;15.22;85.31;99300.44;5091021;28;20044;-80
2023/08/21 00:17:17;;;;;;;0.40;0.40;;;;;;;15.36;85.08;99309.72;5090737;28;20051;-80
2023/08/21 00:19:44;;;;;;;0.30;0.30;;;;;;;15.39;84.40;99310.03;5091008;28;20151;-80
2023/08/21 00:22:12;;;;;;;0.40;0.40;;;;;;;15.41;83.83;99312.44;5090773;28;20079;-80
2023/08/21 00:24:39;;;;;;;0.40;0.40;;;;;;;15.41;83.83;99309.72;5072881;28;20097;-80
2023/08/21 00:27:06;;;;;;;0.40;0.40;;;;;;;15.39;83.82;99309.19;5072432;28;20040;-80
2023/08/21 00:29:33;;;;;;;0.40;0.40;;;;;;;15.34;83.89;99315.44;5090865;28;20056;-80
2023/08/21 00:32:00;;;;;;;0.40;0.40;;;;;;;15.32;84.12;99311.38;5090718;28;20052;-80
2023/08/21 00:34:28;;;;;;;0.40;0.40;;;;;;;15.30;84.26;99313.53;5072732;28;20078;-81
2023/08/21 00:36:55;;;;;;;0.40;0.40;;;;;;;15.31;84.20;99315.16;5072312;28;20060;-80
2023/08/21 00:39:22;;;;;;;0.40;0.40;;;;;;;15.31;84.47;99310.53;5072456;28;20048;-80
2023/08/21 00:41:49;;;;;;;0.40;0.40;;;;;;;15.28;84.72;99300.19;5090429;28;20540;-80
2023/08/21 00:44:16;;;;;;;0.40;0.40;;;;;;;15.32;84.78;99305.94;5090373;28;20052;-80
2023/08/21 00:46:44;;;;;;;0.30;0.30;;;;;;;15.32;84.94;99319.53;5090681;28;20078;-79
2023/08/21 00:49:12;;;;;;;0.40;0.40;;;;;;;15.30;84.80;99310.81;5090170;28;20055;-80
2023/08/21 00:51:39;;;;;;;0.30;0.30;;;;;;;15.26;84.87;99309.69;5072659;28;20044;-80
2023/08/21 00:54:07;;;;;;;0.40;0.40;;;;;;;15.27;85.12;99319.50;5072186;28;20052;-79
2023/08/21 00:56:34;;;;;;;0.35;0.35;;;;;;;15.25;84.70;99314.31;5055877;28;20064;-80
2023/08/21 00:59:03;;;;;;;0.40;0.40;;;;;;;15.20;84.37;99321.66;5090371;28;20052;-80
2023/08/21 01:01:30;;;;;;;0.40;0.40;;;;;;;15.10;84.68;99311.56;5090425;28;20055;-80
2023/08/21 01:03:57;;;;;;;0.40;0.40;;;;;;;15.04;84.32;99310.72;5090355;28;20097;-79
2023/08/21 01:06:24;;;;;;;0.40;0.40;;;;;;;15.03;84.53;99309.06;5054418;28;20140;-80
2023/08/21 01:09:00;;;;;;;0.40;0.40;;;;;;;15.04;83.78;99307.16;5093060;28;20055;-79
2023/08/21 01:11:36;;;;;;;0.40;0.40;;;;;;;14.94;83.87;99316.13;5059957;28;20052;-80
2023/08/21 01:14:13;;;;;;;0.40;0.40;;;;;;;14.85;83.39;99307.66;5076229;28;20055;-79
2023/08/21 01:16:41;;;;;;;0.40;0.40;;;;;;;14.91;83.21;99311.19;5076222;28;20058;-81
2023/08/21 01:19:13;;;;;;;0.40;0.40;;;;;;;14.88;83.18;99320.69;5059722;28;20044;-79
2023/08/21 01:21:41;;;;;;;0.40;0.40;;;;;;;14.80;82.98;99314.97;5076497;28;20566;-80
2023/08/21 01:24:08;;;;;;;0.40;0.40;;;;;;;14.66;82.57;99312.75;5042555;28;20067;-80
2023/08/21 01:26:35;;;;;;;0.40;0.40;;;;;;;14.62;82.68;99317.06;5076046;28;20063;-79
2023/08/21 01:29:02;;;;;;;0.30;0.30;;;;;;;14.49;83.03;99314.78;5094049;28;20494;-81
2023/08/21 01:31:33;;;;;;;0.40;0.40;;;;;;;14.47;83.03;99320.47;5075887;28;20083;-81
2023/08/21 01:34:06;;;;;;;0.40;0.40;;;;;;;14.37;82.99;99316.88;5034211;28;20505;-80
2023/08/21 01:36:33;;;;;;;0.50;0.50;;;;;;;14.30;83.68;99320.66;5051003;28;20106;-81
2023/08/21 01:39:01;;;;;;;0.40;0.40;;;;;;;14.34;83.78;99320.13;5050997;28;20528;-80
2023/08/21 01:41:28;;;;;;;0.40;0.40;;;;;;;14.29;83.69;99316.28;5034349;28;20053;-81
2023/08/21 01:43:56;;;;;;;0.40;0.40;;;;;;;14.21;83.85;99315.97;5018058;28;20458;-81
2023/08/21 01:46:23;;;;;;;0.40;0.40;;;;;;;14.02;84.51;99300.06;5050735;28;20056;-80
2023/08/21 01:48:50;;;;;;;0.40;0.40;;;;;;;14.06;84.94;99305.81;5050968;28;20076;-80
2023/08/21 01:51:20;;;;;;;0.40;0.40;;;;;;;14.02;85.28;99307.38;5050510;28;20045;-80
2023/08/21 01:53:48;;;;;;;0.40;0.40;;;;;;;13.93;85.30;99312.50;5050636;28;20053;-80
2023/08/21 01:56:15;;;;;;;0.40;0.40;;;;;;;13.87;85.83;99310.78;5017583;28;20051;-80
2023/08/21 01:58:42;;;;;;;0.40;0.40;;;;;;;13.83;86.33;99302.38;5034143;28;20059;-80
2023/08/21 02:01:09;;;;;;;0.40;0.40;;;;;;;13.83;86.64;99309.69;5050341;28;20045;-80
2023/08/21 02:03:36;;;;;;;0.40;0.40;;;;;;;13.80;86.95;99307.47;5050710;28;20128;-80
2023/08/21 02:06:03;;;;;;;0.40;0.40;;;;;;;13.79;87.16;99316.69;5087639;28;20445;-80
2023/08/21 02:08:33;;;;;;;0.40;0.40;;;;;;;13.77;87.24;99314.22;5093170;28;20521;-81
2023/08/21 02:11:01;;;;;;;0.40;0.40;;;;;;;13.78;87.62;99313.19;5075372;28;20044;-81
2023/08/21 02:13:29;;;;;;;0.47;0.47;;;;;;;13.61;87.71;99301.63;5025568;28;20054;-80
2023/08/21 02:15:56;;;;;;;0.40;0.40;;;;;;;13.70;88.20;99324.50;5075173;28;20072;-80
2023/08/21 02:18:43;;;;;;;0.40;0.40;;;;;;;13.66;88.23;99323.38;5077595;28;20117;-79
2023/08/21 02:21:11;;;;;;;0.50;0.50;;;;;;;13.57;88.56;99317.59;5092610;28;20484;-79
2023/08/21 02:23:39;;;;;;;0.40;0.40;;;;;;;13.50;88.89;99321.59;5074736;28;20525;-80
2023/08/21 02:26:06;;;;;;;0.40;0.40;;;;;;;13.42;89.17;99323.69;5041466;28;20048;-80
2023/08/21 02:28:33;;;;;;;0.50;0.50;;;;;;;13.30;89.58;99324.91;5093038;28;20055;-81
2023/08/21 02:31:00;;;;;;;0.40;0.40;;;;;;;13.27;89.89;99323.53;5093026;28;20554;-80
2023/08/21 02:33:27;;;;;;;0.40;0.40;;;;;;;13.25;90.15;99333.75;5092418;28;20067;-81
2023/08/21 02:35:55;;;;;;;0.40;0.40;;;;;;;13.20;90.32;99329.09;5092582;28;20099;-80
2023/08/21 02:38:22;;;;;;;0.40;0.40;;;;;;;13.17;90.69;99321.47;5092595;28;20050;-80
2023/08/21 02:40:49;;;;;;;0.40;0.40;;;;;;;13.14;90.93;99327.41;5074337;28;20063;-78
2023/08/21 02:43:17;;;;;;;0.40;0.40;;;;;;;13.08;91.30;99328.41;5092421;28;20052;-79
2023/08/21 02:45:44;;;;;;;0.40;0.40;;;;;;;13.02;91.50;99327.53;5092299;28;20044;-81
2023/08/21 02:48:11;;;;;;;0.40;0.40;;;;;;;13.02;91.74;99324.81;5073770;28;20526;-80
2023/08/21 02:50:39;;;;;;;0.40;0.40;;;;;;;13.08;91.67;99333.00;5092146;28;20052;-80
2023/08/21 02:53:06;;;;;;;0.40;0.40;;;;;;;13.09;91.83;99337.34;5091804;28;20074;-80
2023/08/21 02:55:34;;;;;;;0.40;0.40;;;;;;;12.97;91.65;99321.25;5092160;28;20071;-80
2023/08/21 02:58:01;;;;;;;0.40;0.40;;;;;;;13.10;91.71;99337.09;5092026;28;20102;-79
2023/08/21 03:00:28;;;;;;;0.40;0.40;;;;;;;13.14;91.53;99337.41;5091693;28;20465;-80
2023/08/21 03:02:56;;;;;;;0.40;0.40;;;;;;;13.19;91.22;99334.75;5074165;28;20070;-79
2023/08/21 03:05:23;;;;;;;0.40;0.40;;;;;;;13.21;90.84;99335.31;5073995;28;20131;-81
2023/08/21 03:07:51;;;;;;;0.40;0.40;;;;;;;13.17;90.47;99328.78;5073843;28;20139;-79
2023/08/21 03:10:18;;;;;;;0.50;0.50;;;;;;;13.32;89.91;99352.56;5091498;28;20135;-80
2023/08/21 03:12:46;;;;;;;0.40;0.40;;;;;;;13.36;89.26;99349.09;5092168;28;20705;-80
2023/08/21 03:15:13;;;;;;;0.40;0.40;;;;;;;13.33;88.53;99354.22;5091475;28;20109;-80
2023/08/21 03:17:41;;;;;;;0.50;0.50;;;;;;;13.35;88.47;99355.59;5091675;28;20418;-81
2023/08/21 03:20:08;;;;;;;0.40;0.40;;;;;;;13.39;88.21;99356.72;5091634;28;20051;-81
2023/08/21 03:22:36;;;;;;;0.40;0.40;;;;;;;13.42;87.59;99358.94;5091513;28;20422;-80
2023/08/21 03:25:04;;;;;;;0.50;0.50;;;;;;;13.44;87.48;99354.06;5091467;28;20044;-80
2023/08/21 03:27:32;;;;;;;0.50;0.50;;;;;;;13.54;87.37;99358.75;5073627;28;20048;-79
2023/08/21 03:30:00;;;;;;;0.50;0.50;;;;;;;13.57;87.13;99358.28;5091537;28;20071;-80
2023/08/21 03:32:32;;;;;;;0.40;0.40;;;;;;;13.66;87.00;99355.91;5073855;28;20052;-79
2023/08/21 03:35:00;;;;;;;0.40;0.40;;;;;;;13.67;86.64;99360.25;5073230;28;20131;-80
2023/08/21 03:37:30;;;;;;;0.45;0.45;;;;;;;13.68;86.42;99364.63;5073133;28;20498;-80
2023/08/21 03:39:57;;;;;;;0.43;0.43;;;;;;;13.69;86.25;99355.38;5072937;28;20506;-79
2023/08/21 03:42:25;;;;;;;0.40;0.40;;;;;;;13.71;85.92;99364.09;5072885;28;20044;-79
2023/08/21 03:44:53;;;;;;;0.40;0.40;;;;;;;13.75;85.75;99364.38;5072871;28;20144;-80
2023/08/21 03:47:20;;;;;;;0.40;0.40;;;;;;;13.81;85.21;99366.91;5072595;28;20048;-80
2023/08/21 03:49:54;;;;;;;0.50;0.50;;;;;;;13.84;85.53;99358.25;5073093;28;20081;-80
2023/08/21 03:52:23;;;;;;;0.40;0.40;;;;;;;13.93;85.15;99357.81;5072686;28;20051;-79
2023/08/21 03:54:50;;;;;;;0.50;0.50;;;;;;;13.96;84.65;99363.50;5090887;28;20068;-79
2023/08/21 03:57:17;;;;;;;0.50;0.50;;;;;;;13.97;84.51;99357.00;5090790;28;20044;-79
2023/08/21 03:59:45;;;;;;;0.40;0.40;;;;;;;13.97;84.57;99361.63;5072710;28;20465;-79
2023/08/21 04:02:13;;;;;;;0.50;0.50;;;;;;;14.01;84.68;99362.75;5090814;28;20056;-81
2023/08/21 04:04:41;;;;;;;0.50;0.50;;;;;;;14.00;84.43;99369.22;5072513;28;20117;-80
2023/08/21 04:07:08;;;;;;;0.50;0.50;;;;;;;13.89;84.43;99341.19;5071881;28;20593;-80
2023/08/21 04:09:38;;;;;;;0.50;0.50;;;;;;;14.07;84.58;99372.56;5072703;28;20044;-78
2023/08/21 04:12:05;;;;;;;0.50;0.50;;;;;;;14.00;84.72;99366.53;5072481;28;20112;-79
2023/08/21 04:14:33;;;;;;;0.47;0.47;;;;;;;14.08;84.62;99368.78;5055788;28;20044;-79
2023/08/21 04:17:00;;;;;;;0.40;0.40;;;;;;;14.16;84.15;99362.88;5072462;28;20040;-80
2023/08/21 04:19:32;;;;;;;0.40;0.40;;;;;;;13.98;83.92;99347.00;5072346;28;20047;-80
2023/08/21 04:22:01;;;;;;;0.50;0.50;;;;;;;14.21;83.72;99372.97;5090357;28;20473;-80
2023/08/21 04:24:29;;;;;;;0.50;0.50;;;;;;;14.35;83.48;99357.03;5072062;28;20055;-80
2023/08/21 04:26:56;;;;;;;0.50;0.50;;;;;;;14.51;82.81;99361.50;5072120;28;20040;-79
2023/08/21 04:29:23;;;;;;;0.50;0.50;;;;;;;14.59;82.30;99361.03;5071872;28;20040;-80
2023/08/21 04:31:51;;;;;;;0.40;0.40;;;;;;;14.55;81.84;99362.63;5090176;28;20624;-80
2023/08/21 04:34:18;;;;;;;0.40;0.40;;;;;;;14.59;81.46;99355.59;5038804;28;20440;-80
2023/08/21 04:36:46;;;;;;;0.40;0.40;;;;;;;14.75;81.00;99359.22;5089669;28;20105;-80
2023/08/21 04:39:13;;;;;;;0.50;0.50;;;;;;;14.71;80.28;99356.22;5072000;28;20518;-80
2023/08/21 04:41:41;;;;;;;0.50;0.50;;;;;;;14.74;80.44;99357.59;5055442;28;20571;-81
2023/08/21 04:44:09;;;;;;;0.50;0.50;;;;;;;15.03;79.83;99351.75;5075795;28;20079;-81
2023/08/21 04:46:37;;;;;;;0.40;0.40;;;;;;;15.00;79.08;99352.28;5094259;28;20048;-80
2023/08/21 04:49:04;;;;;;;0.40;0.40;;;;;;;14.99;79.25;99353.34;5076307;28;20097;-80
2023/08/21 04:51:31;;;;;;;0.50;0.50;;;;;;;15.07;78.89;99364.56;5075911;28;20696;-81
2023/08/21 04:54:01;;;;;;;0.50;0.50;;;;;;;15.29;78.48;99360.81;5075792;28;20048;-81
2023/08/21 04:56:28;;;;;;;0.50;0.50;;;;;;;15.31;77.36;99358.66;5075527;28;20048;-81
2023/08/21 04:58:59;;;;;;;0.50;0.50;;;;;;;15.39;77.13;99360.84;5059502;28;20121;-80
2023/08/21 05:01:29;;;;;;;0.40;0.40;;;;;;;15.48;76.32;99366.59;5075560;28;20051;-81
2023/08/21 05:03:58;;;;;;;0.50;0.50;;;;;;;15.51;75.89;99336.94;5059541;28;20101;-80
2023/08/21 05:06:26;;;;;;;0.50;0.50;;;;;;;15.76;75.45;99365.34;5075646;28;20697;-81
2023/08/21 05:08:55;;;;;;;0.40;0.40;;;;;;;15.69;74.93;99354.69;5094009;28;20044;-80
2023/08/21 05:11:22;;;;;;;0.50;0.50;;;;;;;15.82;74.54;99369.69;5075533;28;20135;-81
2023/08/21 05:13:49;;;;;;;0.50;0.50;;;;;;;15.93;74.13;99379.50;5075989;28;20044;-81
2023/08/21 05:16:20;;;;;;;0.50;0.50;;;;;;;15.94;73.74;99366.72;5075714;28;20051;-80
2023/08/21 05:18:47;;;;;;;0.40;0.40;;;;;;;15.91;73.59;99373.50;5093850;28;20075;-81
2023/08/21 05:21:16;;;;;;;0.50;0.50;;;;;;;15.99;73.23;99372.97;5075224;28;20104;-79
2023/08/21 05:23:43;;;;;;;0.40;0.40;;;;;;;16.03;72.45;99379.53;5075109;28;20106;-80
2023/08/21 05:26:10;;;;;;;0.50;0.50;;;;;;;16.22;72.16;99379.78;5074954;28;20043;-80
2023/08/21 05:28:38;;;;;;;0.50;0.50;;;;;;;16.57;70.76;99375.41;5075700;28;20123;-80
2023/08/21 05:31:05;;;;;;;0.50;0.50;;;;;;;16.58;70.73;99359.88;5074855;28;20134;-81
2023/08/21 05:33:45;;;;;;;0.40;0.40;;;;;;;16.65;70.68;99377.56;5074915;28;20044;-80
2023/08/21 05:36:16;;;;;;;0.30;0.30;;;;;;;16.18;71.03;99361.53;5070561;28;20068;-80
2023/08/21 05:38:43;;;;;;;0.40;0.40;;;;;;;16.17;71.14;99381.69;5072857;28;20141;-80
2023/08/21 05:41:10;;;;;;;0.50;0.50;;;;;;;16.24;70.54;99382.25;5072649;28;20056;-80
2023/08/21 05:43:39;;;;;;;0.47;0.47;;;;;;;16.50;70.01;99374.06;5054938;28;20102;-80
2023/08/21 05:46:06;;;;;;;0.40;0.40;;;;;;;16.67;68.86;99383.56;5072100;28;20552;-80
2023/08/21 05:48:34;;;;;;;0.30;0.30;;;;;;;16.62;68.33;99371.84;5054710;28;20056;-80
2023/08/21 05:51:01;;;;;;;0.43;0.43;;;;;;;16.65;68.21;99372.13;5072125;28;20469;-80
2023/08/21 05:53:29;;;;;;;0.40;0.40;;;;;;;16.69;67.43;99375.13;5070806;28;20506;-79
2023/08/21 05:55:56;;;;;;;0.43;0.43;;;;;;;16.85;67.48;99368.56;5072674;28;20051;-80
2023/08/21 05:58:23;;;;;;;0.40;0.40;;;;;;;16.97;67.01;99375.63;5071252;28;20410;-80
2023/08/21 06:00:51;;;;;;;0.40;0.40;;;;;;;17.04;66.81;99365.22;5071495;28;20430;-80
2023/08/21 06:03:18;;;;;;;0.40;0.40;;;;;;;17.10;66.38;99358.66;5072477;28;20081;-79
2023/08/21 06:06:03;;;;;;;0.40;0.40;;;;;;;17.32;65.82;99364.56;5071865;28;20051;-80
2023/08/21 06:08:31;;;;;;;0.40;0.40;;;;;;;17.29;64.97;99356.97;5071236;28;20066;-80
2023/08/21 06:10:59;;;;;;;0.40;0.40;;;;;;;17.33;64.42;99363.47;5072654;28;20521;-81
2023/08/21 06:13:26;;;;;;;0.40;0.40;;;;;;;17.23;64.28;99349.88;5071088;28;20044;-79
2023/08/21 06:15:55;;;;;;;0.40;0.40;;;;;;;17.35;64.35;99362.38;5038456;28;20052;-82
2023/08/21 06:18:23;;;;;;;0.40;0.40;;;;;;;17.38;64.36;99350.91;5071031;28;20658;-81
2023/08/21 06:20:53;;;;;;;0.40;0.40;;;;;;;17.36;63.88;99353.91;5071182;28;20117;-82
2023/08/21 06:23:22;;;;;;;0.40;0.40;;;;;;;17.40;64.20;99343.25;5072007;28;20493;-81
2023/08/21 06:25:49;;;;;;;0.40;0.40;;;;;;;17.82;63.26;99353.66;5070748;28;20052;-82
2023/08/21 06:28:19;;;;;;;0.40;0.40;;;;;;;17.89;62.71;99350.63;5070584;28;20053;-82
2023/08/21 06:30:46;;;;;;;0.40;0.40;;;;;;;18.11;62.18;99352.91;5071369;28;20147;-81
2023/08/21 06:33:14;;;;;;;0.40;0.40;;;;;;;18.08;61.23;99348.84;5071548;28;20098;-81
2023/08/21 06:35:41;;;;;;;0.40;0.40;;;;;;;18.04;60.47;99345.03;5078542;28;20076;-81
2023/08/21 06:38:09;;;;;;;0.40;0.40;;;;;;;18.17;60.18;99349.03;5073461;28;20048;-82
2023/08/21 06:40:36;;;;;;;0.40;0.40;;;;;;;18.32;58.65;99359.00;5074137;28;20050;-81
2023/08/21 06:43:05;;;;;;;0.40;0.40;;;;;;;18.01;59.18;99363.91;5074411;28;20087;-81
2023/08/21 06:45:34;;;;;;;0.40;0.40;;;;;;;17.90;59.08;99344.03;5073701;28;20502;-83
2023/08/21 06:48:03;;;;;;;0.40;0.40;;;;;;;18.12;58.39;99344.41;5057300;28;20048;-78
2023/08/21 06:50:31;;;;;;;0.40;0.40;;;;;;;18.46;58.05;99356.41;5091834;28;20135;-81
2023/08/21 06:52:58;;;;;;;0.40;0.40;;;;;;;18.41;57.57;99351.81;5091913;28;20080;-82
2023/08/21 06:55:26;;;;;;;0.40;0.40;;;;;;;18.71;56.80;99360.81;5091384;28;20556;-81
2023/08/21 06:57:54;;;;;;;0.47;0.47;;;;;;;19.01;55.68;99355.03;5091715;28;20502;-83
2023/08/21 07:00:21;;;;;;;0.50;0.50;;;;;;;19.36;55.24;99350.22;5073469;28;20054;-81
2023/08/21 07:02:48;;;;;;;0.45;0.45;;;;;;;19.57;54.06;99360.88;5073737;28;20510;-83
2023/08/21 07:05:16;;;;;;;0.40;0.40;;;;;;;19.69;54.08;99370.31;5072572;28;20051;-82
2023/08/21 07:07:44;;;;;;;0.50;0.50;;;;;;;19.50;54.04;99350.31;5091598;28;20105;-81
2023/08/21 07:10:12;;;;;;;0.40;0.40;;;;;;;19.90;53.54;99376.31;5091229;28;20109;-82
2023/08/21 07:12:39;;;;;;;0.40;0.40;;;;;;;19.92;53.45;99371.34;5091465;28;20052;-82
2023/08/21 07:15:07;;;;;;;0.30;0.30;;;;;;;19.63;53.60;99376.94;5091696;28;20052;-82
2023/08/21 07:17:35;;;;;;;0.30;0.30;;;;;;;19.26;54.22;99383.19;5091370;28;20139;-81
2023/08/21 07:20:03;;;;;;;0.40;0.40;;;;;;;19.08;55.05;99362.88;5073340;28;20067;-81
2023/08/21 07:22:31;;;;;;;0.40;0.40;;;;;;;19.47;54.76;99373.63;5091194;28;20635;-81
2023/08/21 07:25:00;;;;;;;0.40;0.40;;;;;;;19.77;53.22;99357.88;5091110;28;20048;-82
2023/08/21 07:27:30;;;;;;;0.40;0.40;;;;;;;20.03;52.85;99373.94;5091221;28;20510;-81
2023/08/21 07:29:57;;;;;;;0.40;0.40;;;;;;;20.32;52.07;99369.06;5073022;28;20143;-82
2023/08/21 07:32:25;;;;;;;0.40;0.40;;;;;;;20.47;51.46;99378.13;5090978;28;20101;-82
2023/08/21 07:34:54;;;;;;;0.40;0.40;;;;;;;20.60;51.07;99376.56;5073094;28;20105;-82
2023/08/21 07:37:21;;;;;;;0.40;0.40;;;;;;;20.65;50.83;99374.53;5090786;28;20113;-81
2023/08/21 07:39:49;;;;;;;0.30;0.30;;;;;;;20.32;51.28;99374.53;5091120;28;20102;-80
2023/08/21 07:42:20;;;;;;;0.30;0.30;;;;;;;19.76;52.73;99364.47;5072818;28;20055;-82
2023/08/21 07:44:47;;;;;;;0.30;0.30;;;;;;;19.36;53.02;99360.34;5055735;28;20110;-82
2023/08/21 07:47:15;;;;;;;0.30;0.30;;;;;;;19.08;53.45;99368.34;5091082;28;20459;-82
2023/08/21 07:49:43;;;;;;;0.40;0.40;;;;;;;19.04;53.56;99368.13;5072616;28;20044;-82
2023/08/21 07:52:10;;;;;;;0.50;0.50;;;;;;;19.65;52.10;99352.03;5073103;28;20082;-81
2023/08/21 07:54:37;;;;;;;0.50;0.50;;;;;;;20.09;50.87;99367.25;5090635;28;20095;-82
2023/08/21 07:57:04;;;;;;;0.40;0.40;;;;;;;20.32;50.63;99365.50;5090763;28;20064;-82
2023/08/21 07:59:32;;;;;;;0.50;0.50;;;;;;;20.49;49.80;99364.94;5072419;28;20101;-84
2023/08/21 08:02:00;;;;;;;0.50;0.50;;;;;;;21.05;48.58;99361.16;5090676;28;20077;-81
2023/08/21 08:04:28;;;;;;;0.50;0.50;;;;;;;21.51;47.48;99362.16;5090343;28;20043;-81
2023/08/21 08:06:55;;;;;;;0.40;0.40;;;;;;;21.69;47.26;99346.66;5090977;28;20052;-82
2023/08/21 08:09:22;;;;;;;0.40;0.40;;;;;;;21.55;47.03;99336.53;5090570;28;20048;-81
2023/08/21 08:11:49;;;;;;;0.40;0.40;;;;;;;21.26;47.84;99358.00;5090362;28;20044;-81
2023/08/21 08:14:17;;;;;;;0.40;0.40;;;;;;;20.77;48.68;99352.94;5090083;28;20464;-82
2023/08/21 08:16:44;;;;;;;0.30;0.30;;;;;;;20.54;49.73;99351.16;5090075;28;20067;-81
2023/08/21 08:19:11;;;;;;;0.30;0.30;;;;;;;20.63;49.90;99349.34;5055882;28;20089;-81
2023/08/21 08:21:38;;;;;;;0.30;0.30;;;;;;;20.60;49.84;99351.91;5072587;28;20067;-80
2023/08/21 08:24:06;;;;;;;0.40;0.40;;;;;;;20.40;50.19;99361.25;5090305;28;20068;-82
2023/08/21 08:26:33;;;;;;;0.38;0.38;;;;;;;20.15;49.93;99338.66;5071868;28;20050;-81
2023/08/21 08:29:00;;;;;;;0.30;0.30;;;;;;;20.17;50.62;99352.88;5090465;28;20047;-82
2023/08/21 08:31:30;;;;;;;0.40;0.40;;;;;;;20.06;50.56;99340.47;5090294;28;20082;-82
2023/08/21 08:33:58;;;;;;;0.30;0.30;;;;;;;20.12;50.38;99345.53;5090370;28;20050;-83
2023/08/21 08:36:25;;;;;;;0.30;0.30;;;;;;;19.96;50.28;99354.34;5073371;28;20074;-82
2023/08/21 08:38:54;;;;;;;0.50;0.50;;;;;;;20.29;49.16;99350.47;5091395;28;20052;-82
2023/08/21 08:41:30;;;;;;;0.60;0.60;;;;;;;21.57;45.89;99341.69;5090752;28;20110;-82
2023/08/21 08:44:01;;;;;;;0.50;0.50;;;;;;;21.67;45.36;99335.16;5072492;28;20051;-81
2023/08/21 08:46:29;;;;;;;0.30;0.30;;;;;;;21.51;45.65;99335.50;5072275;28;20117;-82
2023/08/21 08:48:59;;;;;;;0.32;0.32;;;;;;;20.93;46.21;99336.16;5090040;28;20040;-82
2023/08/21 08:51:28;;;;;;;0.60;0.60;;;;;;;22.20;43.71;99323.47;5072534;28;20457;-83
2023/08/21 08:53:59;;;;;;;0.60;0.60;;;;;;;23.42;41.54;99337.72;5090082;28;20140;-82
2023/08/21 08:56:26;;;;;;;0.60;0.60;;;;;;;24.22;39.96;99336.28;5071454;28;20567;-81
2023/08/21 08:58:53;;;;;;;0.60;0.60;;;;;;;24.80;39.10;99323.00;5090263;28;20111;-82
2023/08/21 09:01:20;;;;;;;0.60;0.60;;;;;;;25.20;38.24;99319.09;5089491;28;20056;-81
2023/08/21 09:03:50;;;;;;;0.30;0.30;;;;;;;25.69;37.14;99308.31;5089900;28;20048;-82
2023/08/21 09:06:18;;;;;;;0.30;0.30;;;;;;;24.65;38.99;99316.06;5071681;28;20040;-82
2023/08/21 09:08:57;;;;;;;0.30;0.30;;;;;;;23.39;41.18;99325.41;5089640;28;20525;-82
2023/08/21 09:11:26;;;;;;;0.30;0.30;;;;;;;22.48;42.31;99289.19;5089381;28;20056;-80
2023/08/21 09:13:55;;;;;;;0.30;0.30;;;;;;;22.85;41.96;99325.56;5071117;28;20066;-82
2023/08/21 09:16:24;;;;;;;0.50;0.50;;;;;;;23.20;41.22;99322.97;5089135;28;20067;-83
2023/08/21 09:18:58;;;;;;;0.50;0.50;;;;;;;24.64;39.09;99321.94;5089745;28;20113;-82
2023/08/21 09:21:27;;;;;;;0.40;0.40;;;;;;;25.79;37.42;99318.16;5071826;28;20508;-82
2023/08/21 09:23:59;;;;;;;0.50;0.50;;;;;;;26.25;35.68;99311.56;5089253;28;20055;-82
2023/08/21 09:26:27;;;;;;;0.50;0.50;;;;;;;26.52;34.58;99307.38;5089403;28;20091;-81
2023/08/21 09:28:54;;;;;;;0.50;0.50;;;;;;;26.44;34.28;99318.53;5055714;28;20077;-82
2023/08/21 09:31:23;;;;;;;0.50;0.50;;;;;;;26.86;33.76;99299.00;5092903;28;20510;-82
2023/08/21 09:33:57;;;;;;;0.50;0.50;;;;;;;27.38;32.79;99304.63;5093344;28;20044;-81
2023/08/21 09:36:24;;;;;;;0.50;0.50;;;;;;;28.12;31.58;99309.13;5093158;28;20052;-81
2023/08/21 09:38:52;;;;;;;0.50;0.50;;;;;;;28.41;31.43;99299.59;5075201;28;20040;-82
2023/08/21 09:41:23;;;;;;;0.30;0.30;;;;;;;27.55;32.79;99295.25;5059333;28;20044;-82
2023/08/21 09:43:51;;;;;;;0.40;0.40;;;;;;;27.58;32.69;99299.28;5093247;28;20048;-83
2023/08/21 09:46:27;;;;;;;0.40;0.40;;;;;;;27.62;33.06;99298.19;5092964;28;20063;-82
2023/08/21 09:48:54;;;;;;;0.40;0.40;;;;;;;28.19;32.00;99298.25;5075117;28;20130;-82
2023/08/21 09:51:21;;;;;;;0.50;0.50;;;;;;;28.52;31.70;99278.50;5075057;28;20413;-83
2023/08/21 09:54:07;;;;;;;0.40;0.40;;;;;;;29.19;31.27;99286.06;5093300;28;20145;-82
2023/08/21 09:56:35;;;;;;;0.20;0.20;;;;;;;28.65;31.89;99280.03;5075418;28;20040;-84
2023/08/21 09:59:02;;;;;;;0.30;0.30;;;;;;;28.64;31.69;99274.84;5075191;28;20049;-82
2023/08/21 10:01:32;;;;;;;0.20;0.20;;;;;;;26.90;34.04;99286.06;5092653;28;20101;-82
2023/08/21 10:04:02;;;;;;;0.20;0.20;;;;;;;25.55;35.59;99296.72;5074355;28;20131;-82
2023/08/21 10:06:32;;;;;;;0.22;0.22;;;;;;;24.54;37.28;99284.47;5058321;28;20047;-82
2023/08/21 10:09:00;;;;;;;0.50;0.50;;;;;;;26.34;35.11;99268.03;5074353;28;20056;-83
2023/08/21 10:11:27;;;;;;;0.40;0.40;;;;;;;28.01;32.93;99270.81;5092199;28;20050;-82
2023/08/21 10:13:55;;;;;;;0.20;0.20;;;;;;;26.88;33.82;99285.63;5074434;28;20055;-82
2023/08/21 10:16:23;;;;;;;0.30;0.30;;;;;;;27.02;34.20;99264.72;5092266;28;20502;-82
2023/08/21 10:18:51;;;;;;;0.20;0.20;;;;;;;26.41;34.66;99284.06;5092756;28;20708;-82
2023/08/21 10:21:20;;;;;;;0.20;0.20;;;;;;;25.29;36.12;99270.13;5074060;28;20156;-82
2023/08/21 10:23:54;;;;;;;0.50;0.50;;;;;;;25.41;36.35;99275.72;5092360;28;20411;-83
2023/08/21 10:26:22;;;;;;;0.10;0.10;;;;;;;25.49;35.08;99287.84;5074190;28;20101;-82
2023/08/21 10:29:01;;;;;;;0.50;0.50;;;;;;;25.69;36.05;99287.00;5057656;28;20055;-81
2023/08/21 10:31:38;;;;;;;0.50;0.50;;;;;;;27.53;33.04;99263.50;5092208;28;20255;-83
2023/08/21 10:34:09;;;;;;;0.40;0.40;;;;;;;28.86;31.18;99260.28;5092309;28;20052;-82
2023/08/21 10:36:59;;;;;;;0.20;0.20;;;;;;;27.97;31.84;99271.88;5091876;28;20060;-82
2023/08/21 10:39:32;;;;;;;0.50;0.50;;;;;;;28.51;31.18;99254.66;5091630;28;20093;-82
2023/08/21 10:42:03;;;;;;;0.10;0.10;;;;;;;27.34;31.99;99253.81;5092057;28;20108;-83
2023/08/21 10:44:55;;;;;;;0.40;0.40;;;;;;;26.18;33.17;99258.75;5091948;28;20656;-81
2023/08/21 10:47:26;;;;;;;0.50;0.50;;;;;;;28.02;31.02;99271.63;5075014;28;20052;-81
2023/08/21 10:50:05;;;;;;;0.50;0.50;;;;;;;29.25;29.09;99243.75;5075042;28;20080;-82
2023/08/21 10:52:39;;;;;;;0.50;0.50;;;;;;;29.92;27.95;99264.97;5092191;28;20052;-82
2023/08/21 10:55:11;;;;;;;0.40;0.40;;;;;;;30.12;27.32;99244.28;5091938;28;20055;-81
2023/08/21 10:57:49;;;;;;;0.40;0.40;;;;;;;30.31;26.61;99248.22;5091846;28;20044;-83
2023/08/21 11:00:18;;;;;;;0.50;0.50;;;;;;;29.98;26.92;99236.50;5092095;28;20154;-81
2023/08/21 11:02:47;;;;;;;0.40;0.40;;;;;;;30.24;27.72;99227.44;5073459;28;20055;-82
2023/08/21 11:05:16;;;;;;;0.40;0.40;;;;;;;31.10;26.97;99241.94;5073789;28;20044;-82
2023/08/21 11:07:45;;;;;;;0.20;0.20;;;;;;;30.47;27.33;99239.75;5091715;28;20052;-83
2023/08/21 11:10:16;;;;;;;0.40;0.40;;;;;;;30.33;28.33;99232.75;5073806;28;20048;-83
2023/08/21 11:12:56;;;;;;;0.20;0.20;;;;;;;28.56;30.04;99226.63;5057169;28;20060;-82
2023/08/21 11:15:25;;;;;;;0.40;0.40;;;;;;;27.53;31.02;99233.81;5091308;28;20138;-82
2023/08/21 11:18:02;;;;;;;0.40;0.40;;;;;;;29.03;29.43;99250.75;5091262;28;20097;-84
2023/08/21 11:20:30;;;;;;;0.40;0.40;;;;;;;30.44;27.53;99238.53;5091253;28;20060;-82
2023/08/21 11:23:05;;;;;;;0.40;0.40;;;;;;;31.24;25.94;99216.25;5073466;28;20051;-83
2023/08/21 11:25:40;;;;;;;0.40;0.40;;;;;;;31.31;25.76;99219.13;5090925;28;20544;-83
2023/08/21 11:28:08;;;;;;;0.40;0.40;;;;;;;31.58;25.72;99224.69;5073490;28;20131;-84
2023/08/21 11:30:36;;;;;;;0.40;0.40;;;;;;;31.90;25.41;99236.97;5091151;28;20120;-82
2023/08/21 11:33:07;;;;;;;0.40;0.40;;;;;;;31.92;25.29;99234.59;5073555;28;20502;-83
2023/08/21 11:35:35;;;;;;;0.38;0.38;;;;;;;32.00;25.36;99224.34;5090790;28;20075;-83
2023/08/21 11:38:03;;;;;;;0.40;0.40;;;;;;;32.40;24.18;99222.72;5073299;28;20067;-83
2023/08/21 11:41:02;;;;;;;0.40;0.40;;;;;;;32.64;24.15;99218.56;5073196;28;20471;-83